Time;durP1;ratioP1;P1;durP2;ratioP2;P2;SDS_P1;SDS_P2;PMS_P1;PMS_P2;Temp;Humidity;BMP_temperature;BMP_pressure;BME280_temperature;BME280_humidity;BME280_pressure;Samples;Min_cycle;Max_cycle;Signal;HPM_P1;HPM_P2
2024/03/07 00:00:18;;;;;;;5.00;4.00;;;7.40;99.90;;;;;;4985298;28;20303;-75
2024/03/07 00:02:47;;;;;;;4.72;4.22;;;7.40;99.90;;;;;;5003472;28;20724;-73
2024/03/07 00:05:15;;;;;;;3.65;3.35;;;7.40;99.90;;;;;;4986579;28;20229;-74
2024/03/07 00:07:43;;;;;;;3.42;3.10;;;7.40;99.90;;;;;;4997744;28;20228;-74
2024/03/07 00:10:13;;;;;;;2.85;2.65;;;7.40;99.90;;;;;;5002718;28;20220;-74
2024/03/07 00:12:41;;;;;;;2.42;2.33;;;7.40;99.90;;;;;;4984844;28;20239;-74
2024/03/07 00:15:10;;;;;;;2.60;2.40;;;7.40;99.90;;;;;;4984063;28;20208;-74
2024/03/07 00:17:37;;;;;;;2.22;2.13;;;7.40;99.90;;;;;;4981679;28;20220;-74
2024/03/07 00:20:08;;;;;;;2.25;2.15;;;7.40;99.90;;;;;;4987075;28;20718;-74
2024/03/07 00:22:35;;;;;;;2.00;1.90;;;7.40;99.90;;;;;;4994768;28;20216;-74
2024/03/07 00:25:04;;;;;;;1.85;1.75;;;7.40;99.90;;;;;;5004997;28;20286;-74
2024/03/07 00:27:34;;;;;;;2.00;1.90;;;7.30;99.90;;;;;;5000705;28;20223;-74
2024/03/07 00:30:01;;;;;;;2.00;1.90;;;7.30;99.90;;;;;;5001861;28;20252;-73
2024/03/07 00:32:29;;;;;;;2.03;1.92;;;7.40;99.90;;;;;;5000339;28;20809;-76
2024/03/07 00:34:57;;;;;;;1.70;1.60;;;7.40;99.90;;;;;;5004243;28;21220;-74
2024/03/07 00:37:25;;;;;;;1.95;1.85;;;7.40;99.90;;;;;;5004538;28;20226;-74
2024/03/07 00:39:52;;;;;;;1.90;1.80;;;7.40;99.90;;;;;;5006230;28;20764;-73
2024/03/07 00:42:19;;;;;;;1.90;1.80;;;7.40;99.90;;;;;;5002534;28;20240;-73
2024/03/07 00:44:49;;;;;;;1.80;1.70;;;7.40;99.90;;;;;;5006766;28;20219;-74
2024/03/07 00:47:17;;;;;;;1.60;1.50;;;7.40;99.90;;;;;;5002825;28;20216;-74
2024/03/07 00:49:45;;;;;;;1.98;1.88;;;7.40;99.90;;;;;;5005287;28;22671;-73
2024/03/07 00:52:12;;;;;;;1.60;1.60;;;7.40;99.90;;;;;;5001979;28;20316;-74
2024/03/07 00:54:39;;;;;;;1.88;1.80;;;7.40;99.90;;;;;;4991641;28;20313;-74
2024/03/07 00:57:08;;;;;;;1.83;1.73;;;7.30;99.90;;;;;;5004990;28;20317;-74
2024/03/07 00:59:36;;;;;;;1.65;1.65;;;7.30;99.90;;;;;;5004278;28;20277;-74
2024/03/07 01:02:04;;;;;;;1.70;1.70;;;7.30;99.90;;;;;;5004253;28;20229;-73
2024/03/07 01:04:33;;;;;;;2.00;1.90;;;7.20;99.90;;;;;;5006004;28;20250;-74
2024/03/07 01:07:00;;;;;;;1.70;1.70;;;7.10;99.90;;;;;;5005452;28;20219;-75
2024/03/07 01:09:28;;;;;;;1.65;1.55;;;7.10;99.90;;;;;;5005640;28;20257;-75
2024/03/07 01:11:56;;;;;;;1.95;1.85;;;7.10;99.90;;;;;;5005383;28;20220;-75
2024/03/07 01:14:23;;;;;;;2.03;1.92;;;7.10;99.90;;;;;;5014878;28;20239;-74
2024/03/07 01:16:54;;;;;;;1.90;1.80;;;7.10;99.90;;;;;;5013698;28;20220;-75
2024/03/07 01:19:22;;;;;;;1.58;1.58;;;7.10;99.90;;;;;;4984868;28;20754;-74
2024/03/07 01:21:50;;;;;;;1.70;1.70;;;7.10;99.90;;;;;;5006625;28;20236;-74
2024/03/07 01:24:20;;;;;;;2.03;1.92;;;7.00;99.90;;;;;;5001904;28;20681;-74
2024/03/07 01:26:47;;;;;;;1.55;1.52;;;7.00;99.90;;;;;;5003772;28;20226;-74
2024/03/07 01:29:15;;;;;;;1.98;1.88;;;7.00;99.90;;;;;;5003403;28;20315;-74
2024/03/07 01:31:42;;;;;;;1.88;1.83;;;6.90;99.90;;;;;;5005028;28;20230;-74
2024/03/07 01:34:09;;;;;;;1.50;1.50;;;6.90;99.90;;;;;;5005108;28;20192;-74
2024/03/07 01:36:38;;;;;;;2.03;1.90;;;6.90;99.90;;;;;;5003016;28;20255;-74
2024/03/07 01:39:06;;;;;;;2.05;1.95;;;6.80;99.90;;;;;;4989287;28;20278;-74
2024/03/07 01:41:34;;;;;;;1.85;1.80;;;6.80;99.90;;;;;;5005490;28;20232;-74
2024/03/07 01:44:01;;;;;;;1.67;1.67;;;6.70;99.90;;;;;;5000995;28;20674;-74
2024/03/07 01:46:30;;;;;;;2.10;1.88;;;6.70;99.90;;;;;;4983994;28;20220;-74
2024/03/07 01:48:58;;;;;;;1.45;1.45;;;6.70;99.90;;;;;;4986513;28;20225;-73
2024/03/07 01:51:26;;;;;;;1.80;1.80;;;6.60;99.90;;;;;;4991912;28;20583;-73
2024/03/07 01:53:55;;;;;;;2.25;1.75;;;6.50;99.90;;;;;;5005689;28;20207;-73
2024/03/07 01:56:23;;;;;;;1.95;1.85;;;6.50;99.90;;;;;;5006447;28;20227;-73
2024/03/07 01:58:52;;;;;;;1.60;1.60;;;6.40;99.90;;;;;;5003852;28;20252;-73
2024/03/07 02:01:19;;;;;;;1.90;1.80;;;6.30;99.90;;;;;;4998365;28;20251;-73
2024/03/07 02:03:46;;;;;;;2.10;2.00;;;6.30;99.90;;;;;;5006029;28;20290;-73
2024/03/07 02:06:13;;;;;;;1.67;1.67;;;6.30;99.90;;;;;;5004976;28;20256;-73
2024/03/07 02:08:40;;;;;;;1.85;1.80;;;6.30;99.90;;;;;;5003847;28;20649;-73
2024/03/07 02:11:10;;;;;;;2.00;1.90;;;6.30;99.90;;;;;;4984425;28;20314;-74
2024/03/07 02:13:37;;;;;;;2.08;1.98;;;6.30;99.90;;;;;;4969151;28;20209;-76
2024/03/07 02:16:04;;;;;;;2.20;2.10;;;6.30;99.90;;;;;;4984282;28;20249;-73
2024/03/07 02:18:31;;;;;;;2.03;1.92;;;6.30;99.90;;;;;;4983204;28;20780;-73
2024/03/07 02:21:03;;;;;;;1.75;1.75;;;6.30;99.90;;;;;;4968810;28;20235;-73
2024/03/07 02:23:30;;;;;;;1.98;1.88;;;6.20;99.90;;;;;;4967047;28;20296;-74
2024/03/07 02:25:57;;;;;;;1.67;1.67;;;6.20;99.90;;;;;;4990453;28;20248;-75
2024/03/07 02:28:24;;;;;;;1.80;1.70;;;6.20;99.90;;;;;;5022895;28;20219;-77
2024/03/07 02:30:51;;;;;;;1.70;1.70;;;6.10;99.90;;;;;;5006887;28;20228;-73
2024/03/07 02:33:18;;;;;;;2.00;1.90;;;6.10;99.90;;;;;;4967104;28;20280;-74
2024/03/07 02:35:45;;;;;;;1.80;1.70;;;6.00;99.90;;;;;;5002749;28;20255;-73
2024/03/07 02:38:13;;;;;;;2.00;1.90;;;6.00;99.90;;;;;;4979752;28;20276;-74
2024/03/07 02:40:41;;;;;;;1.88;1.77;;;6.00;99.90;;;;;;4979544;28;20298;-74
2024/03/07 02:43:08;;;;;;;1.60;1.60;;;6.00;99.90;;;;;;4966817;28;20227;-74
2024/03/07 02:45:35;;;;;;;1.70;1.70;;;6.00;99.90;;;;;;4983464;28;20201;-75
2024/03/07 02:48:04;;;;;;;1.98;1.88;;;6.00;99.90;;;;;;4980353;28;20252;-75
2024/03/07 02:50:31;;;;;;;1.63;1.63;;;6.00;99.90;;;;;;4968130;28;20271;-75
2024/03/07 02:52:58;;;;;;;1.75;1.75;;;6.00;99.90;;;;;;4984211;28;20267;-74
2024/03/07 02:55:27;;;;;;;1.60;1.60;;;5.90;99.90;;;;;;4966751;28;20723;-74
2024/03/07 02:57:54;;;;;;;1.83;1.73;;;5.90;99.90;;;;;;4959591;28;20280;-74
2024/03/07 03:00:26;;;;;;;1.63;1.63;;;5.90;99.90;;;;;;4980776;28;20319;-74
2024/03/07 03:02:53;;;;;;;1.60;1.60;;;5.80;99.90;;;;;;4980282;28;20225;-75
2024/03/07 03:05:20;;;;;;;1.90;1.80;;;5.80;99.90;;;;;;4981077;28;20217;-74
2024/03/07 03:07:53;;;;;;;1.70;1.60;;;5.80;99.90;;;;;;4978011;28;20228;-74
2024/03/07 03:10:24;;;;;;;1.75;1.73;;;5.80;99.90;;;;;;4985438;28;20229;-75
2024/03/07 03:12:53;;;;;;;1.55;1.50;;;5.80;99.90;;;;;;5005487;28;20227;-75
2024/03/07 03:15:21;;;;;;;2.05;1.95;;;5.80;99.90;;;;;;5001919;28;20259;-75
2024/03/07 03:17:48;;;;;;;1.60;1.60;;;5.80;99.90;;;;;;5002745;28;20231;-75
2024/03/07 03:20:25;;;;;;;1.65;1.65;;;5.80;99.90;;;;;;5004698;28;20255;-74
2024/03/07 03:22:55;;;;;;;1.65;1.65;;;5.80;99.90;;;;;;4999691;28;20212;-74
2024/03/07 03:25:23;;;;;;;1.65;1.65;;;5.70;99.90;;;;;;5001982;28;20205;-73
2024/03/07 03:27:50;;;;;;;1.90;1.90;;;5.70;99.90;;;;;;4995650;28;20767;-73
2024/03/07 03:30:19;;;;;;;1.77;1.67;;;5.70;99.90;;;;;;5002779;28;20220;-75
2024/03/07 03:32:47;;;;;;;2.03;1.92;;;5.70;99.90;;;;;;5002831;28;20243;-76
2024/03/07 03:35:15;;;;;;;1.80;1.70;;;5.70;99.90;;;;;;5004005;28;20200;-73
2024/03/07 03:37:43;;;;;;;1.90;1.85;;;5.70;99.90;;;;;;4986427;28;20243;-74
2024/03/07 03:40:11;;;;;;;1.85;1.67;;;5.60;99.90;;;;;;4983810;28;20221;-75
2024/03/07 03:42:39;;;;;;;2.00;1.90;;;5.50;99.90;;;;;;4997101;28;20225;-75
2024/03/07 03:45:07;;;;;;;1.88;1.88;;;5.50;99.90;;;;;;4985006;28;20260;-74
2024/03/07 03:47:37;;;;;;;1.58;1.58;;;5.60;99.90;;;;;;4983502;28;20220;-73
2024/03/07 03:50:05;;;;;;;2.05;1.95;;;5.60;99.90;;;;;;4978326;28;20256;-73
2024/03/07 03:52:33;;;;;;;1.70;1.70;;;5.60;99.90;;;;;;4978581;28;20244;-73
2024/03/07 03:55:00;;;;;;;1.73;1.70;;;5.60;99.90;;;;;;4982432;28;20866;-73
2024/03/07 03:57:28;;;;;;;1.60;1.60;;;5.60;99.90;;;;;;4981095;28;20257;-73
2024/03/07 03:59:55;;;;;;;1.70;1.70;;;5.60;99.90;;;;;;4976857;28;20253;-73
2024/03/07 04:02:23;;;;;;;1.90;1.80;;;5.60;99.90;;;;;;4983739;28;20227;-73
2024/03/07 04:04:53;;;;;;;1.60;1.60;;;5.60;99.90;;;;;;4983400;28;20739;-73
2024/03/07 04:07:20;;;;;;;1.85;1.83;;;5.60;99.90;;;;;;4980999;28;20663;-74
2024/03/07 04:09:48;;;;;;;2.10;2.00;;;5.60;99.90;;;;;;4985957;28;20310;-74
2024/03/07 04:12:15;;;;;;;1.90;1.90;;;5.50;99.90;;;;;;4985497;28;20232;-74
2024/03/07 04:14:42;;;;;;;2.00;1.90;;;5.50;99.90;;;;;;4992819;28;20260;-73
2024/03/07 04:17:11;;;;;;;1.75;1.75;;;5.50;99.90;;;;;;4987043;28;20307;-73
2024/03/07 04:19:40;;;;;;;1.80;1.80;;;5.50;99.90;;;;;;4970448;28;20244;-74
2024/03/07 04:22:09;;;;;;;1.90;1.83;;;5.40;99.90;;;;;;4983790;28;20777;-74
2024/03/07 04:24:36;;;;;;;1.77;1.67;;;5.40;99.90;;;;;;4982845;28;20285;-74
2024/03/07 04:27:04;;;;;;;1.80;1.80;;;5.40;99.90;;;;;;4984436;28;20225;-74
2024/03/07 04:29:31;;;;;;;2.15;2.05;;;5.30;99.90;;;;;;4984583;28;20868;-74
2024/03/07 04:31:58;;;;;;;1.92;1.83;;;5.30;99.90;;;;;;4984788;28;20945;-74
2024/03/07 04:34:25;;;;;;;2.00;1.90;;;5.20;99.90;;;;;;4985387;28;20227;-74
2024/03/07 04:36:52;;;;;;;1.58;1.58;;;5.20;99.90;;;;;;4967007;28;20534;-74
2024/03/07 04:39:29;;;;;;;2.10;2.00;;;5.20;99.90;;;;;;4982342;28;20286;-74
2024/03/07 04:41:57;;;;;;;2.33;2.22;;;5.30;99.90;;;;;;4985161;28;20217;-73
2024/03/07 04:44:24;;;;;;;1.60;1.60;;;5.30;99.90;;;;;;4987921;28;20275;-74
2024/03/07 04:46:55;;;;;;;2.10;2.00;;;5.20;99.90;;;;;;4987003;28;20232;-74
2024/03/07 04:49:23;;;;;;;2.25;2.05;;;5.20;99.90;;;;;;4952098;28;21074;-74
2024/03/07 04:51:51;;;;;;;1.95;1.85;;;5.20;99.90;;;;;;4970970;28;20221;-74
2024/03/07 04:54:18;;;;;;;2.33;2.22;;;5.20;99.90;;;;;;4985138;28;20287;-73
2024/03/07 04:56:47;;;;;;;2.30;2.20;;;5.10;99.90;;;;;;4985641;28;20220;-74
2024/03/07 04:59:16;;;;;;;2.33;2.22;;;5.10;99.90;;;;;;4982875;28;20252;-74
2024/03/07 05:01:43;;;;;;;3.42;3.22;;;5.10;99.90;;;;;;4982986;28;20631;-74
2024/03/07 05:04:11;;;;;;;3.38;3.17;;;5.10;99.90;;;;;;4986352;28;20350;-74
2024/03/07 05:06:39;;;;;;;3.40;3.08;;;5.10;99.90;;;;;;4984567;28;20387;-74
2024/03/07 05:09:08;;;;;;;2.67;2.47;;;5.20;99.90;;;;;;4984315;28;20875;-75
2024/03/07 05:11:36;;;;;;;3.20;3.00;;;5.20;99.90;;;;;;4984089;28;20276;-74
2024/03/07 05:14:05;;;;;;;3.78;3.47;;;5.20;99.90;;;;;;4968451;28;20371;-74
2024/03/07 05:16:32;;;;;;;4.13;3.83;;;5.10;99.90;;;;;;4986560;28;20331;-75
2024/03/07 05:19:00;;;;;;;3.25;3.05;;;5.10;99.90;;;;;;4985444;28;20221;-75
2024/03/07 05:21:40;;;;;;;3.70;3.50;;;5.10;99.90;;;;;;4992547;28;20307;-74
2024/03/07 05:24:09;;;;;;;3.55;3.35;;;5.10;99.90;;;;;;5005155;28;20224;-75
2024/03/07 05:26:40;;;;;;;3.30;3.10;;;5.10;99.90;;;;;;4990691;28;20741;-74
2024/03/07 05:29:10;;;;;;;2.90;2.80;;;5.10;99.90;;;;;;4989535;28;20784;-74
2024/03/07 05:31:44;;;;;;;2.63;2.53;;;5.10;99.90;;;;;;5004010;28;21134;-74
2024/03/07 05:34:11;;;;;;;2.30;2.20;;;5.10;99.90;;;;;;5004059;28;20744;-74
2024/03/07 05:36:43;;;;;;;2.22;2.13;;;5.10;99.90;;;;;;5001331;28;20555;-75
2024/03/07 05:39:11;;;;;;;2.45;2.35;;;5.10;99.90;;;;;;5002888;28;20686;-74
2024/03/07 05:41:38;;;;;;;2.10;2.00;;;5.10;99.90;;;;;;5003272;28;20220;-73
2024/03/07 05:44:08;;;;;;;2.30;2.20;;;5.10;99.90;;;;;;5001120;28;20224;-73
2024/03/07 05:46:41;;;;;;;2.65;2.55;;;5.10;99.90;;;;;;4994832;28;20247;-73
2024/03/07 05:49:08;;;;;;;2.47;2.38;;;5.10;99.90;;;;;;5003551;28;20990;-72
2024/03/07 05:51:36;;;;;;;2.30;2.20;;;5.20;99.90;;;;;;5002669;28;20278;-73
2024/03/07 05:54:06;;;;;;;2.83;2.63;;;5.20;99.90;;;;;;4999819;28;20718;-74
2024/03/07 05:56:35;;;;;;;2.33;2.20;;;5.20;99.90;;;;;;5002521;28;20270;-73
2024/03/07 05:59:05;;;;;;;2.40;2.30;;;5.20;99.90;;;;;;5004516;28;20303;-75
2024/03/07 06:01:34;;;;;;;2.03;1.92;;;5.20;99.90;;;;;;5004011;28;20230;-73
2024/03/07 06:04:04;;;;;;;2.50;2.40;;;5.20;99.90;;;;;;5004427;28;20236;-73
2024/03/07 06:06:33;;;;;;;2.38;2.28;;;5.20;99.90;;;;;;5002855;28;20341;-74
2024/03/07 06:09:02;;;;;;;3.33;2.40;;;5.20;99.90;;;;;;5004778;28;20293;-73
2024/03/07 06:11:29;;;;;;;2.63;2.47;;;5.30;99.90;;;;;;5008594;28;20274;-74
2024/03/07 06:13:58;;;;;;;2.97;2.78;;;5.30;99.90;;;;;;4987195;28;20204;-73
2024/03/07 06:16:25;;;;;;;2.42;2.33;;;5.30;99.90;;;;;;4986848;28;20274;-73
2024/03/07 06:18:52;;;;;;;2.90;2.70;;;5.30;99.90;;;;;;5004686;28;20247;-73
2024/03/07 06:21:21;;;;;;;2.78;2.58;;;5.30;99.90;;;;;;5004008;28;20290;-73
2024/03/07 06:23:52;;;;;;;3.80;3.42;;;5.20;99.90;;;;;;5003258;28;20244;-73
2024/03/07 06:26:36;;;;;;;3.85;3.55;;;5.30;99.90;;;;;;4985911;28;20686;-73
2024/03/07 06:29:04;;;;;;;5.18;3.40;;;5.30;99.90;;;;;;5001430;28;20225;-75
2024/03/07 06:31:32;;;;;;;3.10;2.80;;;5.30;99.90;;;;;;5002394;28;20224;-74
2024/03/07 06:33:59;;;;;;;3.00;2.90;;;5.30;99.90;;;;;;5001206;28;20220;-73
2024/03/07 06:36:28;;;;;;;2.85;2.70;;;5.20;99.90;;;;;;4983587;28;20722;-74
2024/03/07 06:38:55;;;;;;;2.50;2.40;;;5.20;99.90;;;;;;4984627;28;20227;-74
2024/03/07 06:41:22;;;;;;;2.60;2.50;;;5.20;99.90;;;;;;4986491;28;20718;-74
2024/03/07 06:43:49;;;;;;;2.60;2.50;;;5.30;99.90;;;;;;5001071;28;20251;-74
2024/03/07 06:46:17;;;;;;;2.60;2.50;;;5.30;99.90;;;;;;4985633;28;20592;-74
2024/03/07 06:48:44;;;;;;;2.50;2.40;;;5.40;99.90;;;;;;4987965;28;20851;-74
2024/03/07 06:51:11;;;;;;;2.30;2.20;;;5.40;99.90;;;;;;5004535;28;20252;-74
2024/03/07 06:53:40;;;;;;;2.58;2.38;;;5.50;99.90;;;;;;5002283;28;20205;-74
2024/03/07 06:56:07;;;;;;;2.33;2.22;;;5.80;99.90;;;;;;5000331;28;20712;-76
2024/03/07 06:58:34;;;;;;;2.13;2.03;;;6.20;99.90;;;;;;4983024;28;20797;-75
2024/03/07 07:01:06;;;;;;;1.92;1.83;;;6.30;99.90;;;;;;5003337;28;20390;-75
2024/03/07 07:03:35;;;;;;;2.40;2.30;;;6.30;99.90;;;;;;5004558;28;20212;-76
2024/03/07 07:06:02;;;;;;;1.98;1.88;;;6.30;99.90;;;;;;5002235;28;20804;-75
2024/03/07 07:08:30;;;;;;;2.40;2.30;;;6.50;99.90;;;;;;4999805;28;20224;-77
2024/03/07 07:10:59;;;;;;;2.20;2.10;;;6.90;99.90;;;;;;5002778;28;20219;-74
2024/03/07 07:13:26;;;;;;;2.00;1.90;;;7.70;99.90;;;;;;5003302;28;20680;-74
2024/03/07 07:15:53;;;;;;;2.40;2.30;;;8.50;99.90;;;;;;4998596;28;20244;-74
2024/03/07 07:18:21;;;;;;;2.92;2.72;;;9.10;99.90;;;;;;4994546;28;20224;-74
2024/03/07 07:20:49;;;;;;;3.58;3.25;;;9.60;99.90;;;;;;4997622;28;20235;-75
2024/03/07 07:23:16;;;;;;;3.20;3.00;;;10.10;99.90;;;;;;4985884;28;20236;-74
2024/03/07 07:25:43;;;;;;;3.17;2.97;;;10.40;99.90;;;;;;4979877;28;20223;-74
2024/03/07 07:28:11;;;;;;;2.75;2.55;;;10.70;99.90;;;;;;4982222;28;20242;-74
2024/03/07 07:30:39;;;;;;;3.08;2.88;;;11.00;99.90;;;;;;4978333;28;20252;-75
2024/03/07 07:33:06;;;;;;;2.90;2.70;;;10.90;99.90;;;;;;4998232;28;20236;-75
2024/03/07 07:35:34;;;;;;;2.33;2.22;;;10.90;99.90;;;;;;4998010;28;20232;-76
2024/03/07 07:38:01;;;;;;;2.83;2.63;;;11.30;99.90;;;;;;4981986;28;20490;-75
2024/03/07 07:40:30;;;;;;;2.67;2.47;;;11.40;99.90;;;;;;4980524;28;20216;-75
2024/03/07 07:42:58;;;;;;;2.88;2.67;;;11.30;99.90;;;;;;4985756;28;20275;-75
2024/03/07 07:45:27;;;;;;;2.70;2.15;;;11.10;99.90;;;;;;4961647;28;20633;-75
2024/03/07 07:47:54;;;;;;;2.30;2.20;;;10.80;99.90;;;;;;4979733;28;20264;-75
2024/03/07 07:50:23;;;;;;;2.45;2.25;;;10.60;99.90;;;;;;4980232;28;20767;-75
2024/03/07 07:52:53;;;;;;;2.55;2.35;;;10.50;99.90;;;;;;4982127;28;20284;-75
2024/03/07 07:55:21;;;;;;;2.92;2.72;;;10.30;99.90;;;;;;4959773;28;20225;-75
2024/03/07 07:57:52;;;;;;;2.70;2.50;;;10.40;99.90;;;;;;4977844;28;20244;-75
2024/03/07 08:00:22;;;;;;;2.35;2.25;;;10.80;99.90;;;;;;4975174;28;20221;-75
2024/03/07 08:02:55;;;;;;;2.40;2.30;;;10.70;99.90;;;;;;4977088;28;20233;-75
2024/03/07 08:05:24;;;;;;;2.70;2.50;;;10.60;99.90;;;;;;4978678;28;20311;-74
2024/03/07 08:07:51;;;;;;;4.32;2.70;;;10.80;99.90;;;;;;4982388;28;20217;-74
2024/03/07 08:10:20;;;;;;;2.55;2.35;;;11.10;99.90;;;;;;4986474;28;20223;-75
2024/03/07 08:12:48;;;;;;;2.80;2.60;;;11.30;99.90;;;;;;4989889;28;20248;-75
2024/03/07 08:15:16;;;;;;;2.88;2.65;;;11.60;99.90;;;;;;4997754;28;20250;-75
2024/03/07 08:17:45;;;;;;;2.70;2.50;;;12.20;99.90;;;;;;4982893;28;20234;-74
2024/03/07 08:20:18;;;;;;;2.25;2.15;;;12.80;99.90;;;;;;4964136;28;20234;-74
2024/03/07 08:22:45;;;;;;;2.28;2.00;;;12.90;99.90;;;;;;4987641;28;20251;-76
2024/03/07 08:25:14;;;;;;;2.65;2.45;;;12.80;99.90;;;;;;4998443;28;20713;-77
2024/03/07 08:27:42;;;;;;;2.40;2.30;;;12.90;99.90;;;;;;4992436;28;20333;-75
2024/03/07 08:30:12;;;;;;;2.45;2.30;;;13.10;99.90;;;;;;4997842;28;20259;-74
2024/03/07 08:32:40;;;;;;;2.45;2.25;;;13.20;99.90;;;;;;4998433;28;20829;-74
2024/03/07 08:35:09;;;;;;;2.30;2.20;;;13.20;99.90;;;;;;4970866;28;20735;-75
2024/03/07 08:37:39;;;;;;;2.60;2.13;;;13.20;99.90;;;;;;5004767;28;20228;-74
2024/03/07 08:40:09;;;;;;;2.03;1.92;;;13.50;99.90;;;;;;5001208;28;20705;-75
2024/03/07 08:42:37;;;;;;;1.92;1.83;;;13.90;99.90;;;;;;4996156;28;20232;-75
2024/03/07 08:45:06;;;;;;;2.15;2.05;;;13.70;99.90;;;;;;4990605;28;20245;-75
2024/03/07 08:47:33;;;;;;;2.15;2.05;;;13.50;99.90;;;;;;4999217;28;20248;-74
2024/03/07 08:50:01;;;;;;;2.45;2.25;;;13.30;99.90;;;;;;4978180;28;20252;-75
2024/03/07 08:52:29;;;;;;;2.17;2.00;;;13.20;99.90;;;;;;4997948;28;20234;-75
2024/03/07 08:54:57;;;;;;;3.83;2.15;;;13.00;99.90;;;;;;4997804;28;20229;-75
2024/03/07 08:57:24;;;;;;;2.25;2.15;;;13.10;99.90;;;;;;4997942;28;20974;-74
2024/03/07 08:59:51;;;;;;;2.50;2.30;;;13.00;99.90;;;;;;5000027;28;20314;-75
2024/03/07 09:02:18;;;;;;;2.20;2.00;;;13.20;99.90;;;;;;4982548;28;20319;-75
2024/03/07 09:04:46;;;;;;;2.55;2.08;;;13.60;99.90;;;;;;5001049;28;20799;-75
2024/03/07 09:07:14;;;;;;;1.95;1.85;;;14.10;99.90;;;;;;5002665;28;20212;-75
2024/03/07 09:09:43;;;;;;;1.77;1.67;;;14.40;99.90;;;;;;5000402;28;20780;-75
2024/03/07 09:12:13;;;;;;;2.30;2.10;;;14.70;99.90;;;;;;4982953;28;20227;-75
2024/03/07 09:14:41;;;;;;;2.47;2.28;;;15.10;99.90;;;;;;4983403;28;20204;-75
2024/03/07 09:17:08;;;;;;;2.40;2.10;;;15.20;99.90;;;;;;4990967;28;20217;-75
2024/03/07 09:19:35;;;;;;;2.30;2.08;;;15.50;99.90;;;;;;4996669;28;20221;-74
2024/03/07 09:22:03;;;;;;;3.03;2.20;;;15.60;99.90;;;;;;4982128;28;20338;-75
2024/03/07 09:24:32;;;;;;;2.30;2.10;;;15.40;99.90;;;;;;4997798;28;20371;-74
2024/03/07 09:26:59;;;;;;;3.83;2.30;;;15.30;99.90;;;;;;5000209;28;20276;-75
2024/03/07 09:29:28;;;;;;;2.50;2.30;;;15.00;99.90;;;;;;4998561;28;20298;-75
2024/03/07 09:31:57;;;;;;;2.55;2.00;;;14.90;99.90;;;;;;4993973;28;20485;-74
2024/03/07 09:34:25;;;;;;;2.20;1.83;;;15.10;99.90;;;;;;4997243;28;20706;-75
2024/03/07 09:36:52;;;;;;;2.50;1.40;;;15.10;99.90;;;;;;5000742;28;20231;-75
2024/03/07 09:39:20;;;;;;;1.85;1.75;;;15.70;99.90;;;;;;5000249;28;20591;-74
2024/03/07 09:41:47;;;;;;;2.10;1.90;;;15.90;99.90;;;;;;5000118;28;20311;-76
2024/03/07 09:44:17;;;;;;;1.98;1.77;;;15.50;99.90;;;;;;4999315;28;20647;-75
2024/03/07 09:46:48;;;;;;;1.75;1.65;;;14.50;99.90;;;;;;4998155;28;20254;-75
2024/03/07 09:49:16;;;;;;;1.80;1.70;;;13.90;99.90;;;;;;5001171;28;20307;-75
2024/03/07 09:51:45;;;;;;;1.60;1.50;;;13.60;99.90;;;;;;4991876;28;20224;-76
2024/03/07 09:54:13;;;;;;;1.08;1.08;;;13.50;99.90;;;;;;4998608;28;20201;-74
2024/03/07 09:56:42;;;;;;;1.73;1.63;;;13.30;99.90;;;;;;4998089;28;20289;-75
2024/03/07 09:59:13;;;;;;;1.70;1.60;;;13.20;99.90;;;;;;4985961;28;20705;-75
2024/03/07 10:01:45;;;;;;;1.55;1.45;;;13.00;99.90;;;;;;4996965;28;20256;-75
2024/03/07 10:04:16;;;;;;;1.90;1.73;;;12.90;99.90;;;;;;5001343;28;20302;-75
2024/03/07 10:06:45;;;;;;;1.80;1.70;;;12.90;99.90;;;;;;5000455;28;20295;-75
2024/03/07 10:09:13;;;;;;;1.70;1.60;;;13.00;99.90;;;;;;4987364;28;20228;-75
2024/03/07 10:11:41;;;;;;;1.73;1.63;;;12.80;99.90;;;;;;4983674;28;20228;-75
2024/03/07 10:14:08;;;;;;;1.75;1.65;;;12.60;99.90;;;;;;4988914;28;20219;-78
2024/03/07 10:16:35;;;;;;;1.80;1.70;;;12.70;99.90;;;;;;4983480;28;20307;-74
2024/03/07 10:19:05;;;;;;;1.80;1.70;;;12.60;99.90;;;;;;4982532;28;20370;-75
2024/03/07 10:21:36;;;;;;;1.80;1.70;;;12.50;99.90;;;;;;4986140;28;20252;-75
2024/03/07 10:24:07;;;;;;;1.80;1.70;;;12.50;99.90;;;;;;4991853;28;20219;-75
2024/03/07 10:26:37;;;;;;;1.85;1.73;;;12.60;99.90;;;;;;4997918;28;20306;-75
2024/03/07 10:29:05;;;;;;;1.83;1.73;;;12.70;99.90;;;;;;4993267;28;20766;-75
2024/03/07 10:31:33;;;;;;;1.70;1.60;;;12.60;99.90;;;;;;4978135;28;20233;-75
2024/03/07 10:34:01;;;;;;;1.83;1.73;;;12.40;99.90;;;;;;5001426;28;20228;-75
2024/03/07 10:36:30;;;;;;;2.05;1.95;;;12.30;99.90;;;;;;5000324;28;20232;-75
2024/03/07 10:39:00;;;;;;;1.90;1.80;;;12.20;99.90;;;;;;4997002;28;20227;-75
2024/03/07 10:41:30;;;;;;;1.70;1.60;;;12.20;99.90;;;;;;5000878;28;20251;-75
2024/03/07 10:43:59;;;;;;;1.77;1.67;;;12.10;99.90;;;;;;4994725;28;20637;-75
2024/03/07 10:46:27;;;;;;;1.90;1.80;;;12.00;99.90;;;;;;5000977;28;20761;-75
2024/03/07 10:48:56;;;;;;;2.20;2.10;;;11.90;99.90;;;;;;4995413;28;20307;-75
2024/03/07 10:51:35;;;;;;;1.92;1.83;;;12.00;99.90;;;;;;4996582;28;20246;-76
2024/03/07 10:54:14;;;;;;;1.77;1.67;;;12.00;99.90;;;;;;4995687;28;20203;-76
2024/03/07 10:56:52;;;;;;;1.65;1.55;;;12.00;99.90;;;;;;4965433;28;20279;-75
2024/03/07 10:59:20;;;;;;;1.63;1.52;;;12.00;99.90;;;;;;4978032;28;20245;-74
2024/03/07 11:01:55;;;;;;;1.85;1.75;;;12.00;99.90;;;;;;4992624;28;20588;-75
2024/03/07 11:04:24;;;;;;;1.90;1.80;;;11.90;99.90;;;;;;4984434;28;20609;-77
2024/03/07 11:06:53;;;;;;;1.73;1.63;;;11.80;99.90;;;;;;4971394;28;20286;-75
2024/03/07 11:09:24;;;;;;;1.83;1.73;;;12.00;99.90;;;;;;4976505;28;20387;-74
2024/03/07 11:11:51;;;;;;;1.80;1.70;;;12.00;99.90;;;;;;4980342;28;20227;-75
2024/03/07 11:14:19;;;;;;;1.75;1.65;;;11.90;99.90;;;;;;4981173;28;20314;-75
2024/03/07 11:16:47;;;;;;;1.63;1.52;;;11.90;99.90;;;;;;4987288;28;20221;-75
2024/03/07 11:19:27;;;;;;;1.70;1.60;;;12.10;99.90;;;;;;4943701;28;20227;-75
2024/03/07 11:21:55;;;;;;;1.77;1.67;;;12.20;99.90;;;;;;4977573;28;20248;-76
2024/03/07 11:24:38;;;;;;;1.60;1.50;;;12.30;99.90;;;;;;4977277;28;20205;-75
2024/03/07 11:27:06;;;;;;;1.73;1.63;;;12.20;99.90;;;;;;4988024;28;20229;-75
2024/03/07 11:29:43;;;;;;;1.98;1.70;;;12.10;99.90;;;;;;4976534;28;20233;-75
2024/03/07 11:32:13;;;;;;;1.50;1.40;;;12.10;99.90;;;;;;4994741;28;20243;-75
2024/03/07 11:34:42;;;;;;;1.88;1.77;;;12.30;99.90;;;;;;4998130;28;20207;-75
2024/03/07 11:37:17;;;;;;;1.60;1.50;;;12.30;99.90;;;;;;4982531;28;20311;-75
2024/03/07 11:39:47;;;;;;;1.33;1.33;;;12.40;99.90;;;;;;4995693;28;20223;-75
2024/03/07 11:42:25;;;;;;;2.40;1.75;;;12.40;99.90;;;;;;4989893;28;20270;-75
2024/03/07 11:44:55;;;;;;;1.80;1.70;;;12.50;99.90;;;;;;4994080;28;20714;-75
2024/03/07 11:47:24;;;;;;;1.50;1.45;;;12.60;99.90;;;;;;4994278;28;20251;-75
2024/03/07 11:49:52;;;;;;;1.77;1.67;;;12.80;99.90;;;;;;4997918;28;21044;-76
2024/03/07 11:52:19;;;;;;;1.80;1.70;;;13.10;99.90;;;;;;4993319;28;20306;-75
2024/03/07 11:54:48;;;;;;;3.22;1.60;;;13.20;99.90;;;;;;5001146;28;20200;-75
2024/03/07 11:57:19;;;;;;;2.38;2.00;;;13.20;99.90;;;;;;4994622;28;20307;-75
2024/03/07 11:59:46;;;;;;;2.05;1.80;;;13.20;99.90;;;;;;4993864;28;20227;-74
2024/03/07 12:02:15;;;;;;;3.15;1.90;;;13.00;99.90;;;;;;4996959;28;20310;-75
2024/03/07 12:04:42;;;;;;;2.80;1.50;;;12.90;99.90;;;;;;4995707;28;20220;-74
2024/03/07 12:07:11;;;;;;;1.70;1.60;;;13.00;99.90;;;;;;4995849;28;20882;-75
2024/03/07 12:09:40;;;;;;;1.45;1.33;;;12.90;99.90;;;;;;4979300;28;20243;-75
2024/03/07 12:12:09;;;;;;;1.60;1.50;;;12.80;99.90;;;;;;4993483;28;20330;-74
2024/03/07 12:14:37;;;;;;;1.60;1.50;;;12.80;99.90;;;;;;4962145;28;20215;-74
2024/03/07 12:17:05;;;;;;;1.67;1.58;;;13.00;99.90;;;;;;4998852;28;20266;-75
2024/03/07 12:19:33;;;;;;;2.00;1.80;;;13.20;99.90;;;;;;4999518;28;20307;-75
2024/03/07 12:22:03;;;;;;;1.85;1.75;;;13.20;99.90;;;;;;4998155;28;20675;-74
2024/03/07 12:24:30;;;;;;;2.05;1.90;;;12.90;99.90;;;;;;5001174;28;20207;-75
2024/03/07 12:27:10;;;;;;;1.65;1.55;;;12.80;99.90;;;;;;4997385;28;20231;-75
2024/03/07 12:29:39;;;;;;;1.88;1.77;;;12.70;99.90;;;;;;4993238;28;23213;-75
2024/03/07 12:32:10;;;;;;;1.65;1.55;;;12.70;99.90;;;;;;4997998;28;20386;-75
2024/03/07 12:34:40;;;;;;;1.88;1.58;;;12.60;99.90;;;;;;5003065;28;20734;-75
2024/03/07 12:37:07;;;;;;;1.60;1.50;;;12.50;99.90;;;;;;4997959;28;20252;-74
2024/03/07 12:39:46;;;;;;;1.60;1.50;;;12.50;99.90;;;;;;5001217;28;20260;-75
2024/03/07 12:42:16;;;;;;;1.80;1.70;;;12.60;99.90;;;;;;4999914;28;20248;-75
2024/03/07 12:44:45;;;;;;;1.88;1.77;;;12.60;99.90;;;;;;4999751;28;20192;-74
2024/03/07 12:47:13;;;;;;;1.75;1.65;;;12.60;99.90;;;;;;4980542;28;20283;-74
2024/03/07 12:49:42;;;;;;;1.85;1.75;;;12.60;99.90;;;;;;5000368;28;20939;-76
2024/03/07 12:52:09;;;;;;;2.10;2.00;;;12.90;99.90;;;;;;4984826;28;20216;-75
2024/03/07 12:54:40;;;;;;;1.90;1.80;;;13.30;99.90;;;;;;4996166;28;20340;-74
2024/03/07 12:57:08;;;;;;;1.98;1.88;;;13.30;99.90;;;;;;4965408;28;20226;-75
2024/03/07 12:59:39;;;;;;;1.63;1.52;;;13.20;99.90;;;;;;4982698;28;20222;-74